SAS3111 LPPD-LPMA
Flight info
| Callsign | SAS3111 |
|---|---|
| Flight time | N/A |
| Altitude | 37000 |
| Route | GIRIX DCT ETROX DCT 35N020W DCT IRKID/N0446F370 DCT IBBAN |
| Aircraft | A320/M-SDE3FGHIRWY/LB1 |
Departure
| Time | 2026-05-05 14:18 |
|---|---|
| Airport | João Paulo II Airport (LPPD) |
Arrival
| Time | N/A |
|---|---|
| Airport | Cristiano Ronaldo International Airport (LPMA) |
| Time | Latitude | Longitude | Altitude | Speed | Heading |
|---|---|---|---|---|---|
| 2026-05-05 13:48 | 37.74811 | -25.70855 | 260 ft | 0 kts | 21° |
| 2026-05-05 14:12 | 37.74811 | -25.70856 | 260 ft | 1 kts | 21° |
| 2026-05-05 14:12 | 37.74787 | -25.70866 | 260 ft | 4 kts | 14° |
| 2026-05-05 14:12 | 37.74761 | -25.70873 | 260 ft | 4 kts | 2° |
| 2026-05-05 14:13 | 37.74735 | -25.70870 | 259 ft | 4 kts | 338° |
| 2026-05-05 14:13 | 37.74718 | -25.70854 | 259 ft | 1 kts | 291° |
| 2026-05-05 14:13 | 37.74717 | -25.70853 | 259 ft | 0 kts | 291° |
| 2026-05-05 14:15 | 37.74719 | -25.70860 | 259 ft | 2 kts | 291° |
| 2026-05-05 14:16 | 37.74730 | -25.70896 | 260 ft | 7 kts | 291° |
| 2026-05-05 14:16 | 37.74749 | -25.70967 | 263 ft | 10 kts | 281° |
| 2026-05-05 14:16 | 37.74711 | -25.71020 | 264 ft | 10 kts | 185° |
| 2026-05-05 14:16 | 37.74634 | -25.71020 | 262 ft | 13 kts | 179° |
| 2026-05-05 14:17 | 37.74571 | -25.70955 | 259 ft | 4 kts | 111° |
| 2026-05-05 14:17 | 37.74563 | -25.70927 | 259 ft | 22 kts | 110° |
| 2026-05-05 14:17 | 37.74409 | -25.70435 | 245 ft | 94 kts | 111° |
| 2026-05-05 14:17 | 37.74097 | -25.69452 | 211 ft | 144 kts | 113° |
| 2026-05-05 14:18 | 37.73697 | -25.68213 | 590 ft | 152 kts | 105° |
| 2026-05-05 14:18 | 37.73150 | -25.67053 | 1165 ft | 162 kts | 135° |
| 2026-05-05 14:18 | 37.72212 | -25.66174 | 1530 ft | 177 kts | 140° |
| 2026-05-05 14:18 | 37.71120 | -25.65270 | 1793 ft | 198 kts | 142° |
| 2026-05-05 14:19 | 37.69893 | -25.64263 | 2036 ft | 221 kts | 142° |
| 2026-05-05 14:19 | 37.68544 | -25.63138 | 2423 ft | 242 kts | 142° |
| 2026-05-05 14:19 | 37.67085 | -25.61893 | 2916 ft | 262 kts | 142° |
| 2026-05-05 14:19 | 37.65560 | -25.60580 | 3752 ft | 268 kts | 142° |
| 2026-05-05 14:20 | 37.64033 | -25.59260 | 4642 ft | 272 kts | 142° |
| 2026-05-05 14:20 | 37.62465 | -25.57900 | 5512 ft | 276 kts | 143° |
| 2026-05-05 14:20 | 37.60877 | -25.56520 | 6410 ft | 279 kts | 142° |
| 2026-05-05 14:20 | 37.59266 | -25.55119 | 7214 ft | 284 kts | 142° |
| 2026-05-05 14:21 | 37.57624 | -25.53691 | 7969 ft | 289 kts | 142° |
| 2026-05-05 14:21 | 37.55951 | -25.52238 | 8728 ft | 295 kts | 142° |
| 2026-05-05 14:21 | 37.54248 | -25.50762 | 9501 ft | 299 kts | 142° |
| 2026-05-05 14:21 | 37.52518 | -25.49262 | 10260 ft | 304 kts | 142° |
| 2026-05-05 14:22 | 37.50750 | -25.47726 | 10735 ft | 319 kts | 142° |
| 2026-05-05 14:22 | 37.48858 | -25.46074 | 10911 ft | 342 kts | 142° |
| 2026-05-05 14:22 | 37.46839 | -25.44314 | 11128 ft | 362 kts | 142° |
| 2026-05-05 14:22 | 37.44744 | -25.42498 | 11684 ft | 369 kts | 143° |
| 2026-05-05 14:23 | 37.42614 | -25.40660 | 12315 ft | 373 kts | 143° |
| 2026-05-05 14:23 | 37.40464 | -25.38808 | 12964 ft | 377 kts | 143° |
| 2026-05-05 14:23 | 37.38287 | -25.36931 | 13616 ft | 381 kts | 143° |
| 2026-05-05 14:23 | 37.36088 | -25.35036 | 14235 ft | 385 kts | 143° |
| 2026-05-05 14:24 | 37.33868 | -25.33122 | 14798 ft | 389 kts | 143° |
| 2026-05-05 14:24 | 37.31631 | -25.31193 | 15374 ft | 392 kts | 143° |
| 2026-05-05 14:24 | 37.29378 | -25.29248 | 15935 ft | 395 kts | 143° |
| 2026-05-05 14:24 | 37.27104 | -25.27288 | 16496 ft | 398 kts | 143° |
| 2026-05-05 14:25 | 37.24811 | -25.25312 | 17064 ft | 401 kts | 143° |
| 2026-05-05 14:25 | 37.22504 | -25.23311 | 17636 ft | 404 kts | 142° |
| 2026-05-05 14:25 | 37.20373 | -25.21010 | 18222 ft | 405 kts | 131° |
| 2026-05-05 14:25 | 37.18532 | -25.18333 | 18790 ft | 407 kts | 127° |
| 2026-05-05 14:26 | 37.16718 | -25.15587 | 19316 ft | 410 kts | 127° |
| 2026-05-05 14:26 | 37.14887 | -25.12827 | 19850 ft | 414 kts | 127° |
| 2026-05-05 14:26 | 37.13028 | -25.10036 | 20391 ft | 417 kts | 127° |
| 2026-05-05 14:26 | 37.11187 | -25.07274 | 20916 ft | 421 kts | 127° |
| 2026-05-05 14:27 | 37.09276 | -25.04414 | 21429 ft | 424 kts | 127° |
| 2026-05-05 14:27 | 37.07374 | -25.01571 | 21919 ft | 427 kts | 127° |
| 2026-05-05 14:27 | 37.05488 | -24.98748 | 22387 ft | 430 kts | 127° |
| 2026-05-05 14:27 | 37.03563 | -24.95866 | 22863 ft | 433 kts | 127° |
| 2026-05-05 14:28 | 37.01629 | -24.92968 | 23319 ft | 436 kts | 127° |
| 2026-05-05 14:28 | 36.99681 | -24.90047 | 23766 ft | 439 kts | 127° |
| 2026-05-05 14:28 | 36.97717 | -24.87110 | 24152 ft | 442 kts | 127° |
| 2026-05-05 14:28 | 36.95735 | -24.84153 | 24501 ft | 445 kts | 127° |
| 2026-05-05 14:29 | 36.93744 | -24.81187 | 24839 ft | 448 kts | 127° |
| 2026-05-05 14:29 | 36.91732 | -24.78194 | 25172 ft | 451 kts | 126° |
| 2026-05-05 14:29 | 36.89708 | -24.75186 | 25499 ft | 453 kts | 126° |
| 2026-05-05 14:29 | 36.87672 | -24.72162 | 25851 ft | 456 kts | 126° |
| 2026-05-05 14:30 | 36.85627 | -24.69125 | 26190 ft | 458 kts | 126° |
| 2026-05-05 14:30 | 36.83566 | -24.66068 | 26514 ft | 461 kts | 125° |
| 2026-05-05 14:30 | 36.81496 | -24.63001 | 26836 ft | 464 kts | 125° |
| 2026-05-05 14:30 | 36.79410 | -24.59913 | 27161 ft | 466 kts | 125° |
| 2026-05-05 14:31 | 36.77313 | -24.56809 | 27476 ft | 469 kts | 124° |
| 2026-05-05 14:31 | 36.75208 | -24.53699 | 27796 ft | 472 kts | 124° |
| 2026-05-05 14:31 | 36.73081 | -24.50562 | 28110 ft | 474 kts | 124° |
| 2026-05-05 14:31 | 36.70948 | -24.47418 | 28442 ft | 476 kts | 124° |
| 2026-05-05 14:32 | 36.68806 | -24.44258 | 28754 ft | 479 kts | 124° |
| 2026-05-05 14:32 | 36.66659 | -24.41086 | 29125 ft | 479 kts | 123° |
| 2026-05-05 14:32 | 36.64794 | -24.37707 | 29591 ft | 466 kts | 109° |
| 2026-05-05 14:32 | 36.63455 | -24.34068 | 30041 ft | 461 kts | 106° |
| 2026-05-05 14:33 | 36.62178 | -24.30469 | 30495 ft | 460 kts | 105° |
| 2026-05-05 14:33 | 36.60892 | -24.26827 | 30897 ft | 458 kts | 105° |
| 2026-05-05 14:33 | 36.59616 | -24.23195 | 31300 ft | 458 kts | 105° |
| 2026-05-05 14:33 | 36.58344 | -24.19572 | 31673 ft | 457 kts | 105° |
| 2026-05-05 14:34 | 36.57072 | -24.15955 | 32073 ft | 456 kts | 105° |
| 2026-05-05 14:34 | 36.55798 | -24.12342 | 32484 ft | 455 kts | 105° |
| 2026-05-05 14:34 | 36.54526 | -24.08746 | 32892 ft | 454 kts | 105° |
| 2026-05-05 14:34 | 36.53254 | -24.05156 | 33326 ft | 453 kts | 105° |
| 2026-05-05 14:35 | 36.51984 | -24.01579 | 33759 ft | 452 kts | 104° |
| 2026-05-05 14:35 | 36.50719 | -23.98016 | 34171 ft | 451 kts | 104° |
| 2026-05-05 14:35 | 36.49452 | -23.94452 | 34548 ft | 450 kts | 104° |
| 2026-05-05 14:35 | 36.48188 | -23.90898 | 34862 ft | 450 kts | 104° |
| 2026-05-05 14:36 | 36.46923 | -23.87345 | 35163 ft | 449 kts | 104° |
| 2026-05-05 14:36 | 36.45659 | -23.83793 | 35451 ft | 449 kts | 105° |
| 2026-05-05 14:36 | 36.44393 | -23.80242 | 35737 ft | 449 kts | 105° |
| 2026-05-05 14:36 | 36.43128 | -23.76697 | 36015 ft | 449 kts | 105° |
| 2026-05-05 14:37 | 36.41861 | -23.73151 | 36353 ft | 449 kts | 105° |
| 2026-05-05 14:37 | 36.40596 | -23.69619 | 36628 ft | 448 kts | 105° |
| 2026-05-05 14:37 | 36.39325 | -23.66079 | 36884 ft | 448 kts | 106° |
| 2026-05-05 14:37 | 36.38056 | -23.62554 | 37131 ft | 448 kts | 106° |
| 2026-05-05 14:38 | 36.36784 | -23.59015 | 37375 ft | 448 kts | 106° |
| 2026-05-05 14:38 | 36.35944 | -23.56679 | 37527 ft | 448 kts | 106° |
| 2026-05-05 14:38 | 36.34668 | -23.53145 | 37759 ft | 449 kts | 106° |
| 2026-05-05 14:38 | 36.33393 | -23.49616 | 37984 ft | 449 kts | 107° |
| 2026-05-05 14:39 | 36.31703 | -23.44933 | 38269 ft | 449 kts | 107° |
| 2026-05-05 14:39 | 36.30425 | -23.41391 | 38340 ft | 453 kts | 107° |
| 2026-05-05 14:39 | 36.27831 | -23.34207 | 38312 ft | 458 kts | 108° |
| 2026-05-05 14:40 | 36.25657 | -23.28215 | 38314 ft | 459 kts | 108° |
| 2026-05-05 14:40 | 36.23028 | -23.21012 | 38315 ft | 459 kts | 108° |
| 2026-05-05 14:41 | 36.20400 | -23.13806 | 38313 ft | 459 kts | 108° |
| 2026-05-05 14:41 | 36.17776 | -23.06599 | 38333 ft | 460 kts | 109° |
| 2026-05-05 14:42 | 36.15122 | -22.99380 | 38327 ft | 461 kts | 109° |
| 2026-05-05 14:42 | 36.12471 | -22.92168 | 38328 ft | 461 kts | 109° |
| 2026-05-05 14:43 | 36.09816 | -22.84949 | 38320 ft | 461 kts | 109° |
| 2026-05-05 14:43 | 36.07154 | -22.77721 | 38353 ft | 462 kts | 109° |
| 2026-05-05 14:44 | 36.04489 | -22.70496 | 38335 ft | 462 kts | 109° |
| 2026-05-05 14:44 | 36.01809 | -22.63265 | 38331 ft | 463 kts | 110° |
| 2026-05-05 14:45 | 35.99114 | -22.56037 | 38319 ft | 463 kts | 110° |
| 2026-05-05 14:45 | 35.96421 | -22.48797 | 38309 ft | 464 kts | 110° |
| 2026-05-05 14:46 | 35.93743 | -22.41602 | 38314 ft | 464 kts | 111° |
| 2026-05-05 14:46 | 35.91064 | -22.34443 | 38314 ft | 465 kts | 111° |
| 2026-05-05 14:47 | 35.88338 | -22.27197 | 38310 ft | 466 kts | 111° |
| 2026-05-05 14:47 | 35.85616 | -22.19954 | 38309 ft | 466 kts | 111° |
| 2026-05-05 14:48 | 35.82895 | -22.12703 | 38304 ft | 466 kts | 111° |
| 2026-05-05 14:48 | 35.80160 | -22.05451 | 38301 ft | 466 kts | 111° |
| 2026-05-05 14:49 | 35.77423 | -21.98233 | 38304 ft | 467 kts | 111° |
| 2026-05-05 14:49 | 35.74685 | -21.91013 | 38302 ft | 467 kts | 111° |
| 2026-05-05 14:50 | 35.71934 | -21.83779 | 38309 ft | 467 kts | 111° |
| 2026-05-05 14:50 | 35.69177 | -21.76542 | 38315 ft | 467 kts | 112° |
| 2026-05-05 14:51 | 35.66422 | -21.69301 | 38299 ft | 467 kts | 112° |
| 2026-05-05 14:51 | 35.63692 | -21.62141 | 38301 ft | 468 kts | 113° |
| 2026-05-05 14:52 | 35.60914 | -21.54908 | 38297 ft | 468 kts | 113° |
| 2026-05-05 14:52 | 35.58128 | -21.47688 | 38294 ft | 468 kts | 113° |
| 2026-05-05 14:53 | 35.55350 | -21.40470 | 38298 ft | 468 kts | 113° |
| 2026-05-05 14:53 | 35.52561 | -21.33238 | 38284 ft | 468 kts | 114° |
| 2026-05-05 14:54 | 35.49771 | -21.26017 | 38283 ft | 468 kts | 114° |
| 2026-05-05 14:54 | 35.46978 | -21.18797 | 38288 ft | 468 kts | 114° |
| 2026-05-05 14:55 | 35.44171 | -21.11588 | 38300 ft | 469 kts | 114° |
| 2026-05-05 14:55 | 35.41354 | -21.04377 | 38286 ft | 469 kts | 114° |
| 2026-05-05 14:56 | 35.38536 | -20.97158 | 38281 ft | 469 kts | 114° |
| 2026-05-05 14:56 | 35.35714 | -20.89944 | 38266 ft | 469 kts | 115° |
| 2026-05-05 14:57 | 35.32891 | -20.82741 | 38272 ft | 470 kts | 115° |
| 2026-05-05 14:57 | 35.30058 | -20.75524 | 38282 ft | 470 kts | 115° |
| 2026-05-05 14:58 | 35.27216 | -20.68317 | 38280 ft | 470 kts | 115° |
| 2026-05-05 14:58 | 35.24394 | -20.61151 | 38276 ft | 470 kts | 115° |
| 2026-05-05 14:59 | 35.21544 | -20.53948 | 38271 ft | 470 kts | 116° |
| 2026-05-05 14:59 | 35.18685 | -20.46744 | 38271 ft | 471 kts | 117° |
| 2026-05-05 15:00 | 35.16309 | -20.40757 | 38262 ft | 471 kts | 116° |
| 2026-05-05 15:00 | 35.12958 | -20.32333 | 38265 ft | 472 kts | 117° |
| 2026-05-05 15:01 | 35.10082 | -20.25133 | 38260 ft | 472 kts | 117° |
| 2026-05-05 15:01 | 35.07194 | -20.17927 | 38257 ft | 472 kts | 117° |
| 2026-05-05 15:02 | 35.04311 | -20.10732 | 38264 ft | 472 kts | 117° |
| 2026-05-05 15:02 | 35.01418 | -20.03536 | 38247 ft | 473 kts | 118° |
| 2026-05-05 15:03 | 34.98185 | -19.96641 | 38250 ft | 471 kts | 126° |
| 2026-05-05 15:03 | 34.94577 | -19.89985 | 38247 ft | 471 kts | 126° |
| 2026-05-05 15:04 | 34.90951 | -19.83329 | 38249 ft | 471 kts | 126° |
| 2026-05-05 15:04 | 34.87321 | -19.76677 | 38256 ft | 472 kts | 126° |
| 2026-05-05 15:05 | 34.81873 | -19.66706 | 38237 ft | 471 kts | 126° |
| 2026-05-05 15:06 | 34.78243 | -19.60075 | 38239 ft | 471 kts | 126° |
| 2026-05-05 15:06 | 34.74608 | -19.53443 | 38239 ft | 471 kts | 126° |
| 2026-05-05 15:07 | 34.70972 | -19.46824 | 38235 ft | 471 kts | 127° |
| 2026-05-05 15:07 | 34.67332 | -19.40215 | 38239 ft | 470 kts | 127° |
| 2026-05-05 15:08 | 34.63699 | -19.33622 | 38226 ft | 470 kts | 127° |
| 2026-05-05 15:08 | 34.60060 | -19.27034 | 38227 ft | 469 kts | 127° |
| 2026-05-05 15:09 | 34.56441 | -19.20507 | 38236 ft | 469 kts | 127° |
| 2026-05-05 15:09 | 34.52795 | -19.13927 | 38233 ft | 469 kts | 127° |
| 2026-05-05 15:10 | 34.49153 | -19.07362 | 38230 ft | 469 kts | 127° |
| 2026-05-05 15:10 | 34.45509 | -19.00817 | 38230 ft | 468 kts | 127° |
| 2026-05-05 15:11 | 34.41851 | -18.94273 | 38224 ft | 468 kts | 127° |
| 2026-05-05 15:11 | 34.38200 | -18.87735 | 38222 ft | 468 kts | 127° |
| 2026-05-05 15:12 | 34.34572 | -18.81247 | 38219 ft | 468 kts | 127° |
| 2026-05-05 15:12 | 34.30918 | -18.74720 | 38220 ft | 469 kts | 127° |
| 2026-05-05 15:13 | 34.27255 | -18.68201 | 38203 ft | 469 kts | 128° |
| 2026-05-05 15:13 | 34.23584 | -18.61691 | 38206 ft | 468 kts | 128° |
| 2026-05-05 15:14 | 34.19915 | -18.55187 | 38212 ft | 468 kts | 128° |
| 2026-05-05 15:14 | 34.16243 | -18.48691 | 38209 ft | 468 kts | 128° |
| 2026-05-05 15:15 | 34.12569 | -18.42193 | 38220 ft | 468 kts | 128° |
| 2026-05-05 15:15 | 34.08893 | -18.35696 | 38193 ft | 468 kts | 128° |
| 2026-05-05 15:16 | 34.05220 | -18.29220 | 38196 ft | 468 kts | 128° |
| 2026-05-05 15:16 | 34.01533 | -18.22747 | 38193 ft | 468 kts | 128° |
| 2026-05-05 15:17 | 33.97844 | -18.16282 | 38200 ft | 468 kts | 128° |
| 2026-05-05 15:17 | 33.94164 | -18.09826 | 37717 ft | 466 kts | 128° |
| 2026-05-05 15:17 | 33.92321 | -18.06612 | 37095 ft | 465 kts | 128° |
| 2026-05-05 15:18 | 33.90472 | -18.03487 | 36397 ft | 465 kts | 129° |
| 2026-05-05 15:18 | 33.88553 | -18.00358 | 35658 ft | 465 kts | 130° |
| 2026-05-05 15:18 | 33.86602 | -17.97258 | 34943 ft | 465 kts | 130° |
| 2026-05-05 15:18 | 33.84637 | -17.94164 | 34218 ft | 465 kts | 130° |
| 2026-05-05 15:19 | 33.82670 | -17.91072 | 33366 ft | 466 kts | 130° |
| 2026-05-05 15:19 | 33.80711 | -17.87967 | 32459 ft | 468 kts | 130° |
| 2026-05-05 15:19 | 33.78749 | -17.84834 | 31554 ft | 470 kts | 129° |
| 2026-05-05 15:19 | 33.76786 | -17.81679 | 30638 ft | 473 kts | 129° |
| 2026-05-05 15:20 | 33.74817 | -17.78513 | 29686 ft | 474 kts | 129° |
| 2026-05-05 15:20 | 33.72844 | -17.75345 | 28833 ft | 471 kts | 129° |
| 2026-05-05 15:20 | 33.70892 | -17.72214 | 28109 ft | 466 kts | 129° |
| 2026-05-05 15:20 | 33.68956 | -17.69116 | 27381 ft | 461 kts | 129° |
| 2026-05-05 15:21 | 33.67036 | -17.66054 | 26668 ft | 457 kts | 129° |
| 2026-05-05 15:21 | 33.65133 | -17.63025 | 25980 ft | 453 kts | 129° |
| 2026-05-05 15:21 | 33.63244 | -17.60023 | 25303 ft | 449 kts | 129° |
| 2026-05-05 15:21 | 33.61367 | -17.57033 | 24658 ft | 446 kts | 129° |
| 2026-05-05 15:22 | 33.59509 | -17.54074 | 24021 ft | 442 kts | 129° |
| 2026-05-05 15:22 | 33.57665 | -17.51140 | 23334 ft | 439 kts | 129° |
| 2026-05-05 15:22 | 33.55832 | -17.48223 | 22618 ft | 435 kts | 129° |
| 2026-05-05 15:22 | 33.54018 | -17.45344 | 21965 ft | 430 kts | 129° |
| 2026-05-05 15:23 | 33.52222 | -17.42502 | 21314 ft | 426 kts | 129° |
| 2026-05-05 15:23 | 33.50442 | -17.39690 | 20737 ft | 421 kts | 129° |
| 2026-05-05 15:23 | 33.48684 | -17.36911 | 20156 ft | 416 kts | 129° |
| 2026-05-05 15:23 | 33.46964 | -17.34190 | 19515 ft | 413 kts | 129° |
| 2026-05-05 15:24 | 33.45233 | -17.31457 | 18812 ft | 411 kts | 129° |
| 2026-05-05 15:24 | 33.43515 | -17.28746 | 18194 ft | 407 kts | 129° |
| 2026-05-05 15:24 | 33.41811 | -17.26056 | 17497 ft | 404 kts | 129° |
| 2026-05-05 15:24 | 33.40116 | -17.23381 | 16747 ft | 402 kts | 129° |
| 2026-05-05 15:25 | 33.38446 | -17.20740 | 16154 ft | 394 kts | 128° |
| 2026-05-05 15:25 | 33.36804 | -17.18149 | 15447 ft | 390 kts | 128° |
| 2026-05-05 15:25 | 33.35173 | -17.15581 | 14819 ft | 384 kts | 128° |
| 2026-05-05 15:25 | 33.33576 | -17.13072 | 14249 ft | 376 kts | 127° |
| 2026-05-05 15:26 | 33.31998 | -17.10600 | 13517 ft | 373 kts | 127° |
| 2026-05-05 15:26 | 33.30453 | -17.08176 | 13233 ft | 355 kts | 127° |
| 2026-05-05 15:26 | 33.29011 | -17.05914 | 13097 ft | 329 kts | 127° |
| 2026-05-05 15:26 | 33.27658 | -17.03792 | 12706 ft | 316 kts | 128° |
| 2026-05-05 15:27 | 33.26334 | -17.01718 | 12332 ft | 312 kts | 128° |
| 2026-05-05 15:27 | 33.25019 | -16.99657 | 11977 ft | 309 kts | 128° |
| 2026-05-05 15:27 | 33.23726 | -16.97630 | 11650 ft | 305 kts | 128° |
| 2026-05-05 15:27 | 33.22440 | -16.95622 | 11260 ft | 303 kts | 128° |
| 2026-05-05 15:28 | 33.21167 | -16.93644 | 10851 ft | 299 kts | 128° |
| 2026-05-05 15:28 | 33.19903 | -16.91680 | 10505 ft | 297 kts | 127° |
| 2026-05-05 15:28 | 33.19072 | -16.90384 | 10300 ft | 296 kts | 128° |
| 2026-05-05 15:28 | 33.17828 | -16.88443 | 9991 ft | 294 kts | 127° |
| 2026-05-05 15:29 | 33.16589 | -16.86509 | 9638 ft | 292 kts | 127° |
| 2026-05-05 15:29 | 33.15364 | -16.84593 | 9220 ft | 290 kts | 127° |
| 2026-05-05 15:29 | 33.14146 | -16.82683 | 8798 ft | 287 kts | 127° |
| 2026-05-05 15:29 | 33.12942 | -16.80800 | 8403 ft | 285 kts | 127° |
| 2026-05-05 15:30 | 33.11742 | -16.78931 | 8012 ft | 282 kts | 127° |
| 2026-05-05 15:30 | 33.10555 | -16.77083 | 7627 ft | 279 kts | 127° |
| 2026-05-05 15:30 | 33.09377 | -16.75249 | 7239 ft | 277 kts | 127° |
| 2026-05-05 15:30 | 33.08216 | -16.73450 | 7015 ft | 268 kts | 128° |
| 2026-05-05 15:31 | 33.07107 | -16.71732 | 6895 ft | 255 kts | 127° |
| 2026-05-05 15:31 | 33.06054 | -16.70099 | 6761 ft | 241 kts | 127° |
| 2026-05-05 15:31 | 33.05062 | -16.68560 | 6523 ft | 230 kts | 127° |
| 2026-05-05 15:31 | 33.04097 | -16.67061 | 6181 ft | 227 kts | 127° |
| 2026-05-05 15:32 | 33.03141 | -16.65573 | 5914 ft | 225 kts | 127° |
| 2026-05-05 15:32 | 33.02195 | -16.64102 | 5660 ft | 223 kts | 127° |
| 2026-05-05 15:32 | 33.01243 | -16.62640 | 5434 ft | 224 kts | 131° |
| 2026-05-05 15:32 | 33.00108 | -16.61385 | 5303 ft | 222 kts | 144° |
| 2026-05-05 15:33 | 32.98776 | -16.60473 | 5090 ft | 220 kts | 157° |
| 2026-05-05 15:33 | 32.97319 | -16.59943 | 4819 ft | 218 kts | 169° |
| 2026-05-05 15:33 | 32.95811 | -16.59784 | 4502 ft | 217 kts | 176° |
| 2026-05-05 15:33 | 32.94324 | -16.59699 | 4286 ft | 211 kts | 174° |
| 2026-05-05 15:34 | 32.92865 | -16.59607 | 4017 ft | 208 kts | 173° |
| 2026-05-05 15:34 | 32.91428 | -16.59515 | 3745 ft | 206 kts | 172° |
| 2026-05-05 15:34 | 32.89997 | -16.59423 | 3430 ft | 206 kts | 172° |
| 2026-05-05 15:34 | 32.88571 | -16.59333 | 3165 ft | 204 kts | 173° |
| 2026-05-05 15:35 | 32.87153 | -16.59245 | 3024 ft | 205 kts | 172° |
| 2026-05-05 15:35 | 32.85722 | -16.59419 | 3013 ft | 211 kts | 191° |
| 2026-05-05 15:35 | 32.84336 | -16.60055 | 3020 ft | 215 kts | 205° |
| 2026-05-05 15:35 | 32.83127 | -16.61032 | 3041 ft | 207 kts | 211° |
| 2026-05-05 15:36 | 32.81957 | -16.62012 | 3028 ft | 204 kts | 208° |
| 2026-05-05 15:36 | 32.80798 | -16.62965 | 3060 ft | 204 kts | 211° |
| 2026-05-05 15:36 | 32.79618 | -16.63938 | 3022 ft | 208 kts | 208° |
| 2026-05-05 15:36 | 32.78440 | -16.64909 | 3001 ft | 205 kts | 211° |
| 2026-05-05 15:37 | 32.77262 | -16.65880 | 3002 ft | 207 kts | 210° |
| 2026-05-05 15:37 | 32.76061 | -16.66868 | 2670 ft | 219 kts | 210° |
| 2026-05-05 15:37 | 32.74802 | -16.67902 | 2473 ft | 218 kts | 210° |
| 2026-05-05 15:37 | 32.73555 | -16.68935 | 2180 ft | 218 kts | 212° |
| 2026-05-05 15:38 | 32.69731 | -16.72126 | 522 ft | 196 kts | 216° |
| 2026-05-05 15:38 | 32.68676 | -16.73014 | 328 ft | 183 kts | 217° |